createdAt,value
2018-07-28T00:00:26.036Z,95197.93
2018-07-28T00:02:55.352Z,95193.77
2018-07-28T00:05:25.445Z,95189.05
2018-07-28T00:07:54.829Z,95188.23
2018-07-28T00:10:24.689Z,95177.97
2018-07-28T00:12:53.876Z,95179.29
2018-07-28T00:15:23.021Z,95180.02
2018-07-28T00:17:53.329Z,95172.88
2018-07-28T00:20:22.523Z,95172.05
2018-07-28T00:22:51.743Z,95169.88
2018-07-28T00:25:21.923Z,95160.08
2018-07-28T00:27:51.097Z,95160.53
2018-07-28T00:30:20.313Z,95161.77
2018-07-28T00:32:49.683Z,95159.20
2018-07-28T00:35:19.643Z,95155.15
2018-07-28T00:37:49.170Z,95155.88
2018-07-28T00:40:19.275Z,95160.08
2018-07-28T00:42:49.017Z,95152.95
2018-07-28T00:45:18.240Z,95153.02
2018-07-28T00:47:48.032Z,95148.80
2018-07-28T00:50:18.297Z,95145.70
2018-07-28T00:52:47.429Z,95153.88
2018-07-28T00:55:16.570Z,95149.34
2018-07-28T00:57:45.691Z,95142.70
2018-07-28T01:00:14.801Z,95137.66
2018-07-28T01:02:43.909Z,95132.63
2018-07-28T01:05:13.021Z,95129.12
2018-07-28T01:07:42.109Z,95130.59
2018-07-28T01:10:11.225Z,95127.39
2018-07-28T01:12:40.361Z,95122.63
2018-07-28T01:15:10.914Z,95129.71
2018-07-28T01:17:40.313Z,95128.41
2018-07-28T01:20:10.957Z,95133.72
2018-07-28T01:22:41.065Z,95135.33
2018-07-28T01:25:11.381Z,95136.72
2018-07-28T01:27:41.369Z,95127.02
2018-07-28T01:30:14.640Z,95132.98
2018-07-28T01:32:43.770Z,95123.72
2018-07-28T01:35:12.896Z,95122.75
2018-07-28T01:37:42.078Z,95115.44
2018-07-28T01:40:11.266Z,95123.18
2018-07-28T01:42:40.380Z,95117.56
2018-07-28T01:45:09.940Z,95117.48
2018-07-28T01:47:39.136Z,95122.87
2018-07-28T01:50:09.260Z,95117.21
2018-07-28T01:52:38.399Z,95115.40
2018-07-28T01:55:07.476Z,95110.41
2018-07-28T01:57:36.629Z,95106.55
2018-07-28T02:00:06.661Z,95090.81
2018-07-28T02:02:35.864Z,95096.62
2018-07-28T02:05:06.300Z,95094.88
2018-07-28T02:07:35.620Z,95085.26
2018-07-28T02:10:04.981Z,95092.91
2018-07-28T02:12:34.194Z,95092.59
2018-07-28T02:15:03.366Z,95092.84
2018-07-28T02:17:32.557Z,95092.61
2018-07-28T02:20:01.744Z,95096.20
2018-07-28T02:22:30.956Z,95096.77
2018-07-28T02:25:00.066Z,95093.41
2018-07-28T02:27:29.246Z,95100.97
2018-07-28T02:29:58.356Z,95091.52
2018-07-28T02:32:27.732Z,95092.75
2018-07-28T02:34:56.961Z,95084.45
2018-07-28T02:37:26.106Z,95087.45
2018-07-28T02:39:55.342Z,95086.64
2018-07-28T02:42:24.547Z,95092.44
2018-07-28T02:44:53.730Z,95084.77
2018-07-28T02:47:22.830Z,95080.80
2018-07-28T02:49:51.957Z,95078.53
2018-07-28T02:52:21.042Z,95082.19
2018-07-28T02:54:50.239Z,95091.31
2018-07-28T02:57:19.361Z,95079.39
2018-07-28T02:59:48.539Z,95085.63
2018-07-28T03:02:17.653Z,95080.94
2018-07-28T03:04:46.829Z,95075.48
2018-07-28T03:07:16.017Z,95078.08
2018-07-28T03:09:45.122Z,95079.81
2018-07-28T03:12:14.275Z,95080.42
2018-07-28T03:14:43.409Z,95079.23
2018-07-28T03:17:12.557Z,95078.00
2018-07-28T03:19:41.771Z,95075.42
2018-07-28T03:22:10.869Z,95084.02
2018-07-28T03:24:40.029Z,95081.20
2018-07-28T03:27:09.159Z,95084.94
2018-07-28T03:29:38.321Z,95082.23
2018-07-28T03:32:07.597Z,95084.05
2018-07-28T03:34:36.857Z,95088.98
2018-07-28T03:37:06.324Z,95083.88
2018-07-28T03:39:35.464Z,95089.73
2018-07-28T03:42:04.605Z,95089.50
2018-07-28T03:44:33.728Z,95097.69
2018-07-28T03:47:02.892Z,95093.27
2018-07-28T03:49:32.025Z,95095.27
2018-07-28T03:52:01.184Z,95096.14
2018-07-28T03:54:30.342Z,95101.08
2018-07-28T03:56:59.506Z,95091.46
2018-07-28T03:59:28.621Z,95096.47
2018-07-28T04:01:57.740Z,95093.47
2018-07-28T04:04:26.941Z,95100.38
2018-07-28T04:06:56.228Z,95104.77
2018-07-28T04:09:25.398Z,95105.48
2018-07-28T04:11:54.492Z,95109.97
2018-07-28T04:14:23.963Z,95114.53
2018-07-28T04:16:53.066Z,95112.58
2018-07-28T04:19:22.183Z,95105.48
2018-07-28T04:21:51.313Z,95105.57
2018-07-28T04:24:20.477Z,95104.33
2018-07-28T04:26:49.737Z,95112.34
2018-07-28T04:29:18.865Z,95117.67
2018-07-28T04:31:47.961Z,95114.86
2018-07-28T04:34:17.172Z,95117.86
2018-07-28T04:36:46.241Z,95114.48
2018-07-28T04:39:15.441Z,95113.71
2018-07-28T04:41:44.501Z,95115.12
2018-07-28T04:44:13.698Z,95117.94
2018-07-28T04:46:42.863Z,95121.06
2018-07-28T04:49:11.976Z,95119.91
2018-07-28T04:51:41.185Z,95121.52
2018-07-28T04:54:10.484Z,95114.83
2018-07-28T04:56:39.680Z,95112.44
2018-07-28T04:59:08.810Z,95111.55
2018-07-28T05:01:37.910Z,95115.13
2018-07-28T05:04:07.010Z,95124.50
2018-07-28T05:06:36.106Z,95120.59
2018-07-28T05:09:08.022Z,95128.45
2018-07-28T05:11:37.141Z,95124.55
2018-07-28T05:14:06.232Z,95124.23
2018-07-28T05:16:35.370Z,95121.13
2018-07-28T05:19:04.900Z,95124.39
2018-07-28T05:21:34.042Z,95121.59
2018-07-28T05:24:03.253Z,95125.36
2018-07-28T05:26:32.365Z,95116.44
2018-07-28T05:29:01.478Z,95118.09
2018-07-28T05:31:30.650Z,95114.59
2018-07-28T05:33:59.804Z,95116.78
2018-07-28T05:36:28.966Z,95116.00
2018-07-28T05:38:58.125Z,95113.66
2018-07-28T05:41:27.342Z,95126.73
2018-07-28T05:43:56.444Z,95121.98
2018-07-28T05:46:25.658Z,95128.68
2018-07-28T05:48:55.078Z,95132.89
2018-07-28T05:51:24.446Z,95137.38
2018-07-28T05:53:53.660Z,95138.55
2018-07-28T05:56:22.792Z,95133.35
2018-07-28T05:58:51.861Z,95129.42
2018-07-28T06:01:21.042Z,95126.12
2018-07-28T06:03:50.174Z,95121.58
2018-07-28T06:06:19.348Z,95125.23
2018-07-28T06:08:48.477Z,95128.55
2018-07-28T06:11:17.673Z,95130.06
2018-07-28T06:13:47.119Z,95124.22
2018-07-28T06:16:16.645Z,95127.22
2018-07-28T06:18:45.918Z,95123.23
2018-07-28T06:21:15.115Z,95120.93
2018-07-28T06:23:44.275Z,95128.42
2018-07-28T06:26:13.429Z,95124.83
2018-07-28T06:28:42.609Z,95124.78
2018-07-28T06:31:11.697Z,95132.39
2018-07-28T06:33:40.814Z,95143.28
2018-07-28T06:36:09.874Z,95142.39
2018-07-28T06:38:38.999Z,95145.17
2018-07-28T06:41:08.227Z,95140.67
2018-07-28T06:43:37.347Z,95151.54
2018-07-28T06:46:06.467Z,95155.91
2018-07-28T06:48:36.335Z,95156.28
2018-07-28T06:51:05.580Z,95158.20
2018-07-28T06:53:34.720Z,95152.23
2018-07-28T06:56:03.960Z,95150.66
2018-07-28T06:58:33.152Z,95157.98
2018-07-28T07:01:02.323Z,95160.17
2018-07-28T07:03:31.634Z,95156.27
2018-07-28T07:06:00.692Z,95156.94
2018-07-28T07:08:29.822Z,95160.03
2018-07-28T07:10:59.012Z,95159.50
2018-07-28T07:13:28.136Z,95166.86
2018-07-28T07:15:57.256Z,95161.17
2018-07-28T07:18:26.473Z,95159.11
2018-07-28T07:20:55.563Z,95157.27
2018-07-28T07:23:24.685Z,95158.95
2018-07-28T07:25:53.787Z,95165.73
2018-07-28T07:28:22.951Z,95163.27
2018-07-28T07:30:52.053Z,95168.78
2018-07-28T07:33:21.254Z,95163.77
2018-07-28T07:35:50.321Z,95165.67
2018-07-28T07:38:19.461Z,95169.41
2018-07-28T07:40:48.688Z,95168.35
2018-07-28T07:43:17.781Z,95170.66
2018-07-28T07:45:46.901Z,95163.11
2018-07-28T07:48:15.977Z,95165.39
2018-07-28T07:50:45.123Z,95164.58
2018-07-28T07:53:14.441Z,95170.72
2018-07-28T07:55:43.657Z,95169.03
2018-07-28T07:58:12.720Z,95173.97
2018-07-28T08:00:41.938Z,95161.93
2018-07-28T08:03:11.145Z,95169.13
2018-07-28T08:05:40.228Z,95169.78
2018-07-28T08:08:09.405Z,95170.27
2018-07-28T08:10:38.580Z,95169.47
2018-07-28T08:13:07.720Z,95175.81
2018-07-28T08:15:36.848Z,95162.92
2018-07-28T08:18:06.426Z,95167.37
2018-07-28T08:20:35.660Z,95172.78
2018-07-28T08:23:04.790Z,95165.03
2018-07-28T08:25:33.928Z,95166.71
2018-07-28T08:28:03.000Z,95162.19
2018-07-28T08:30:32.124Z,95158.38
2018-07-28T08:33:01.301Z,95164.27
2018-07-28T08:35:30.430Z,95171.26
2018-07-28T08:37:59.569Z,95172.25
2018-07-28T08:40:28.844Z,95164.69
2018-07-28T08:42:58.172Z,95177.67
2018-07-28T08:45:27.356Z,95178.86
2018-07-28T08:47:56.589Z,95173.69
2018-07-28T08:50:25.884Z,95179.76
2018-07-28T08:52:55.099Z,95181.27
2018-07-28T08:55:24.186Z,95180.93
2018-07-28T08:57:53.336Z,95186.97
2018-07-28T09:00:22.574Z,95188.81
2018-07-28T09:02:51.796Z,95189.58
2018-07-28T09:05:20.938Z,95191.77
2018-07-28T09:07:50.052Z,95190.42
2018-07-28T09:10:19.203Z,95188.05
2018-07-28T09:12:48.356Z,95191.70
2018-07-28T09:15:17.437Z,95193.30
2018-07-28T09:17:46.639Z,95194.70
2018-07-28T09:20:15.720Z,95193.72
2018-07-28T09:22:44.796Z,95198.30
2018-07-28T09:25:14.033Z,95196.88
2018-07-28T09:27:43.156Z,95190.11
2018-07-28T09:30:12.237Z,95186.51
2018-07-28T09:32:41.429Z,95182.31
2018-07-28T09:35:10.617Z,95187.30
2018-07-28T09:37:46.156Z,95178.70
2018-07-28T09:40:15.217Z,95176.33
2018-07-28T09:42:44.478Z,95183.92
2018-07-28T09:45:13.697Z,95181.11
2018-07-28T09:47:42.827Z,95189.86
2018-07-28T09:50:11.938Z,95187.39
2018-07-28T09:52:41.145Z,95189.06
2018-07-28T09:55:10.389Z,95187.98
2018-07-28T09:57:39.519Z,95185.75
2018-07-28T10:00:08.937Z,95189.35
2018-07-28T10:02:38.147Z,95188.75
2018-07-28T10:05:07.475Z,95194.36
2018-07-28T10:07:36.586Z,95200.17
2018-07-28T10:10:05.757Z,95198.84
2018-07-28T10:12:34.909Z,95197.23
2018-07-28T10:15:04.165Z,95195.21
2018-07-28T10:17:33.471Z,95201.06
2018-07-28T10:20:02.755Z,95199.28
2018-07-28T10:22:31.913Z,95203.64
2018-07-28T10:25:01.149Z,95200.72
2018-07-28T10:27:30.228Z,95197.08
2018-07-28T10:29:59.374Z,95198.39
2018-07-28T10:32:28.492Z,95199.87
2018-07-28T10:34:57.692Z,95211.14
2018-07-28T10:37:26.834Z,95206.08
2018-07-28T10:39:56.005Z,95199.01
2018-07-28T10:42:25.206Z,95202.52
2018-07-28T10:44:54.476Z,95210.53
2018-07-28T10:47:24.083Z,95207.34
2018-07-28T10:49:53.282Z,95207.37
2018-07-28T10:52:22.438Z,95205.36
2018-07-28T10:54:52.244Z,95207.79
2018-07-28T10:57:23.695Z,95207.37
2018-07-28T10:59:53.361Z,95209.98
2018-07-28T11:02:22.836Z,95201.16
2018-07-28T11:04:52.056Z,95200.96
2018-07-28T11:07:21.248Z,95202.72
2018-07-28T11:09:50.461Z,95203.58
2018-07-28T11:12:19.700Z,95199.56
2018-07-28T11:14:48.990Z,95215.39
2018-07-28T11:17:18.132Z,95219.20
2018-07-28T11:19:47.324Z,95221.37
2018-07-28T11:22:16.524Z,95211.70
2018-07-28T11:24:45.700Z,95220.11
2018-07-28T11:27:14.826Z,95217.03
2018-07-28T11:29:43.925Z,95217.12
2018-07-28T11:32:24.570Z,95226.26
2018-07-28T11:35:04.981Z,95232.63
2018-07-28T11:38:43.221Z,95239.26
2018-07-28T11:42:24.378Z,95244.08
2018-07-28T11:45:02.726Z,95234.44
2018-07-28T11:47:31.901Z,95235.95
2018-07-28T11:50:01.265Z,95235.48
2018-07-28T11:52:30.540Z,95223.01
2018-07-28T11:54:59.759Z,95224.03
2018-07-28T11:57:28.959Z,95230.15
2018-07-28T11:59:58.141Z,95223.66
2018-07-28T12:02:27.351Z,95229.20
2018-07-28T12:04:56.561Z,95234.63
2018-07-28T12:07:25.630Z,95232.81
2018-07-28T12:09:54.876Z,95242.45
2018-07-28T12:12:24.153Z,95238.59
2018-07-28T12:14:53.376Z,95250.36
2018-07-28T12:17:22.534Z,95265.45
2018-07-28T12:19:51.658Z,95247.11
2018-07-28T12:22:20.849Z,95257.04
2018-07-28T12:24:50.062Z,95248.02
2018-07-28T12:27:19.214Z,95244.88
2018-07-28T12:29:48.340Z,95261.16
2018-07-28T12:32:17.524Z,95266.10
2018-07-28T12:34:46.767Z,95256.55
2018-07-28T12:37:15.913Z,95259.63
2018-07-28T12:39:45.097Z,95259.31
2018-07-28T12:42:14.338Z,95285.27
2018-07-28T12:44:43.506Z,95279.08
2018-07-28T12:47:12.804Z,95286.41
2018-07-28T12:49:41.913Z,95293.09
2018-07-28T12:52:11.091Z,95282.86
2018-07-28T12:54:40.175Z,95293.56
2018-07-28T12:57:09.441Z,95288.94
2018-07-28T12:59:38.585Z,95306.00
2018-07-28T13:02:07.808Z,95302.61
2018-07-28T13:04:36.985Z,95305.20
2018-07-28T13:07:06.082Z,95310.28
2018-07-28T13:09:35.276Z,95311.70
2018-07-28T13:12:04.576Z,95310.21
2018-07-28T13:14:33.645Z,95307.34
2018-07-28T13:17:02.775Z,95307.00
2018-07-28T13:19:32.173Z,95302.27
2018-07-28T13:22:01.265Z,95302.73
2018-07-28T13:24:30.439Z,95308.27
2018-07-28T13:26:59.540Z,95298.67
2018-07-28T13:29:28.650Z,95296.61
2018-07-28T13:31:57.878Z,95294.62
2018-07-28T13:34:27.142Z,95293.06
2018-07-28T13:36:56.241Z,95289.55
2018-07-28T13:39:25.644Z,95294.06
2018-07-28T13:41:54.762Z,95293.73
2018-07-28T13:44:23.978Z,95295.27
2018-07-28T13:46:53.136Z,95293.39
2018-07-28T13:49:22.447Z,95297.52
2018-07-28T13:51:51.566Z,95298.27
2018-07-28T13:54:20.628Z,95306.45
2018-07-28T13:56:49.818Z,95289.73
2018-07-28T13:59:19.112Z,95296.38
2018-07-28T14:01:48.418Z,95292.45
2018-07-28T14:04:17.548Z,95297.44
2018-07-28T14:06:46.669Z,95287.20
2018-07-28T14:09:16.010Z,95294.98
2018-07-28T14:11:45.165Z,95296.20
2018-07-28T14:14:14.413Z,95288.16
2018-07-28T14:16:43.531Z,95291.22
2018-07-28T14:19:12.661Z,95291.86
2018-07-28T14:21:42.158Z,95300.77
2018-07-28T14:24:11.275Z,95299.47
2018-07-28T14:26:40.497Z,95304.63
2018-07-28T14:29:09.733Z,95308.36
2018-07-28T14:31:38.870Z,95312.56
2018-07-28T14:34:08.042Z,95309.48
2018-07-28T14:36:37.229Z,95312.38
2018-07-28T14:39:08.226Z,95315.25
2018-07-28T14:41:37.703Z,95323.98
2018-07-28T14:44:06.856Z,95312.92
2018-07-28T14:46:35.950Z,95306.37
2018-07-28T14:49:05.335Z,95308.03
2018-07-28T14:51:34.548Z,95302.39
2018-07-28T14:54:03.682Z,95306.47
2018-07-28T14:56:32.777Z,95310.02
2018-07-28T14:59:01.906Z,95317.14
2018-07-28T15:01:31.166Z,95316.67
2018-07-28T15:04:00.273Z,95327.20
2018-07-28T15:06:29.425Z,95324.20
2018-07-28T15:08:58.608Z,95333.64
2018-07-28T15:11:27.870Z,95330.63
2018-07-28T15:13:57.057Z,95328.47
2018-07-28T15:16:26.211Z,95327.84
2018-07-28T15:18:55.293Z,95323.14
2018-07-28T15:21:24.687Z,95338.08
2018-07-28T15:23:53.883Z,95331.53
2018-07-28T15:26:22.989Z,95335.27
2018-07-28T15:28:52.230Z,95337.36
2018-07-28T15:31:22.255Z,95335.16
2018-07-28T15:33:51.407Z,95333.75
2018-07-28T15:36:20.592Z,95336.55
2018-07-28T15:38:50.012Z,95337.03
2018-07-28T15:41:19.290Z,95344.17
2018-07-28T15:43:48.392Z,95342.89
2018-07-28T15:46:17.658Z,95336.31
2018-07-28T15:48:46.788Z,95332.90
2018-07-28T15:51:15.922Z,95329.09
2018-07-28T15:53:45.172Z,95325.73
2018-07-28T15:56:14.280Z,95319.33
2018-07-28T15:58:43.649Z,95326.25
2018-07-28T16:01:12.894Z,95324.98
2018-07-28T16:03:42.065Z,95332.72
2018-07-28T16:06:11.289Z,95335.15
2018-07-28T16:08:40.449Z,95330.79
2018-07-28T16:11:09.565Z,95331.41
2018-07-28T16:13:38.954Z,95334.75
2018-07-28T16:16:08.259Z,95326.97
2018-07-28T16:18:37.345Z,95329.76
2018-07-28T16:21:06.489Z,95331.33
2018-07-28T16:23:35.841Z,95334.95
2018-07-28T16:26:05.366Z,95346.29
2018-07-28T16:28:34.457Z,95347.32
2018-07-28T16:31:03.633Z,95346.30
2018-07-28T16:33:33.017Z,95348.52
2018-07-28T16:36:02.134Z,95356.33
2018-07-28T16:38:31.238Z,95354.52
2018-07-28T16:41:00.503Z,95342.91
2018-07-28T16:43:29.598Z,95343.91
2018-07-28T16:45:59.144Z,95348.66
2018-07-28T16:48:28.332Z,95342.67
2018-07-28T16:50:57.484Z,95351.08
2018-07-28T16:53:26.657Z,95356.22
2018-07-28T16:55:55.849Z,95344.06
2018-07-28T16:58:24.930Z,95331.81
2018-07-28T17:00:54.034Z,95339.64
2018-07-28T17:03:23.204Z,95342.41
2018-07-28T17:05:52.324Z,95353.59
2018-07-28T17:08:21.397Z,95350.95
2018-07-28T17:10:50.584Z,95361.54
2018-07-28T17:13:19.744Z,95359.69
2018-07-28T17:15:48.888Z,95366.41
2018-07-28T17:18:17.972Z,95371.12
2018-07-28T17:20:47.097Z,95388.41
2018-07-28T17:23:16.305Z,95380.05
2018-07-28T17:25:45.484Z,95376.61
2018-07-28T17:28:14.537Z,95375.19
2018-07-28T17:30:43.691Z,95379.96
2018-07-28T17:33:12.880Z,95390.17
2018-07-28T17:35:41.981Z,95385.95
2018-07-28T17:38:11.173Z,95397.25
2018-07-28T17:40:46.616Z,95388.97
2018-07-28T17:43:15.766Z,95395.18
2018-07-28T17:45:44.836Z,95399.30
2018-07-28T17:48:13.996Z,95401.88
2018-07-28T17:50:43.056Z,95408.38
2018-07-28T17:53:12.165Z,95409.77
2018-07-28T17:55:41.413Z,95413.16
2018-07-28T17:58:10.494Z,95410.53
2018-07-28T18:00:39.596Z,95405.70
2018-07-28T18:03:08.706Z,95408.25
2018-07-28T18:05:37.930Z,95412.59
2018-07-28T18:08:07.025Z,95415.84
2018-07-28T18:10:36.177Z,95421.94
2018-07-28T18:13:05.410Z,95421.41
2018-07-28T18:15:35.390Z,95418.37
2018-07-28T18:18:04.712Z,95426.93
2018-07-28T18:20:33.771Z,95427.33
2018-07-28T18:23:02.938Z,95425.12
2018-07-28T18:25:32.473Z,95429.47
2018-07-28T18:28:01.606Z,95435.42
2018-07-28T18:30:30.712Z,95432.84
2018-07-28T18:32:59.826Z,95447.84
2018-07-28T18:35:28.947Z,95450.63
2018-07-28T18:37:58.126Z,95453.67
2018-07-28T18:40:27.246Z,95454.78
2018-07-28T18:42:56.325Z,95459.84
2018-07-28T18:45:25.461Z,95460.58
2018-07-28T18:47:54.537Z,95461.89
2018-07-28T18:50:23.833Z,95466.80
2018-07-28T18:52:52.941Z,95469.32
2018-07-28T18:55:22.044Z,95466.70
2018-07-28T18:57:51.426Z,95470.54
2018-07-28T19:00:20.564Z,95475.84
2018-07-28T19:02:49.634Z,95479.17
2018-07-28T19:05:18.706Z,95484.16
2018-07-28T19:07:47.860Z,95499.23
2018-07-28T19:10:17.104Z,95488.70
2018-07-28T19:12:51.602Z,95501.53
2018-07-28T19:15:20.759Z,95509.53
2018-07-28T19:17:55.231Z,95519.21
2018-07-28T19:20:24.462Z,95505.98
2018-07-28T19:22:58.672Z,95517.31
2018-07-28T19:25:27.792Z,95517.29
2018-07-28T19:28:02.304Z,95521.58
2018-07-28T19:30:31.453Z,95527.64
2018-07-28T19:33:00.590Z,95526.73
2018-07-28T19:35:34.988Z,95530.00
2018-07-28T19:38:04.080Z,95533.55
2018-07-28T19:40:33.199Z,95538.14
2018-07-28T19:43:02.316Z,95539.98
2018-07-28T19:45:31.418Z,95545.45
2018-07-28T19:48:00.666Z,95549.63
2018-07-28T19:50:29.958Z,95557.87
2018-07-28T19:52:59.045Z,95552.66
2018-07-28T19:55:28.150Z,95551.22
2018-07-28T19:57:57.248Z,95557.59
2018-07-28T20:00:26.461Z,95564.50
2018-07-28T20:02:55.567Z,95565.78
2018-07-28T20:05:24.997Z,95565.02
2018-07-28T20:07:54.129Z,95573.80
2018-07-28T20:10:23.357Z,95580.53
2018-07-28T20:12:52.571Z,95582.51
2018-07-28T20:15:21.629Z,95572.84
2018-07-28T20:17:50.793Z,95578.33
2018-07-28T20:20:19.936Z,95573.97
2018-07-28T20:22:49.141Z,95581.22
2018-07-28T20:25:18.297Z,95571.58
2018-07-28T20:27:47.403Z,95577.30
2018-07-28T20:30:16.530Z,95576.11
2018-07-28T20:32:45.630Z,95571.87
2018-07-28T20:35:14.804Z,95574.52
2018-07-28T20:37:44.008Z,95577.86
2018-07-28T20:40:13.111Z,95582.78
2018-07-28T20:42:42.333Z,95584.62
2018-07-28T20:45:11.441Z,95585.95
2018-07-28T20:47:40.637Z,95586.82
2018-07-28T20:50:09.780Z,95589.19
2018-07-28T20:52:38.948Z,95593.72
2018-07-28T20:55:08.060Z,95598.03
2018-07-28T20:57:37.148Z,95595.11
2018-07-28T21:00:06.409Z,95600.19
2018-07-28T21:02:35.690Z,95604.88
2018-07-28T21:05:05.078Z,95607.00
2018-07-28T21:07:34.928Z,95606.17
2018-07-28T21:10:04.255Z,95605.02
2018-07-28T21:12:34.417Z,95604.72
2018-07-28T21:15:04.465Z,95606.02
2018-07-28T21:17:33.681Z,95605.50
2018-07-28T21:20:03.353Z,95605.16
2018-07-28T21:22:32.528Z,95604.96
2018-07-28T21:25:02.259Z,95608.39
2018-07-28T21:27:31.916Z,95614.23
2018-07-28T21:30:01.361Z,95619.22
2018-07-28T21:32:30.705Z,95617.09
2018-07-28T21:35:00.472Z,95623.69
2018-07-28T21:37:29.652Z,95616.43
2018-07-28T21:40:00.099Z,95615.55
2018-07-28T21:42:29.282Z,95627.35
2018-07-28T21:44:58.454Z,95637.16
2018-07-28T21:47:27.694Z,95636.00
2018-07-28T21:49:56.916Z,95637.48
2018-07-28T21:52:27.362Z,95639.52
2018-07-28T21:54:57.392Z,95639.00
2018-07-28T21:57:26.508Z,95634.60
2018-07-28T21:59:55.942Z,95641.66
2018-07-28T22:02:25.072Z,95638.50
2018-07-28T22:04:54.935Z,95647.06
2018-07-28T22:07:24.090Z,95651.16
2018-07-28T22:09:53.305Z,95657.16
2018-07-28T22:12:22.400Z,95664.66
2018-07-28T22:14:52.835Z,95665.36
2018-07-28T22:17:23.196Z,95667.48
2018-07-28T22:19:52.414Z,95671.89
2018-07-28T22:22:21.596Z,95670.49
2018-07-28T22:24:51.817Z,95665.36
2018-07-28T22:27:21.072Z,95664.86
2018-07-28T22:29:50.897Z,95658.02
2018-07-28T22:32:20.311Z,95661.84
2018-07-28T22:34:50.042Z,95665.05
2018-07-28T22:37:19.262Z,95663.73
2018-07-28T22:39:48.557Z,95663.89
2018-07-28T22:42:17.801Z,95656.20
2018-07-28T22:44:46.953Z,95657.67
2018-07-28T22:47:16.051Z,95655.20
2018-07-28T22:49:45.301Z,95658.56
2018-07-28T22:52:14.479Z,95655.13
2018-07-28T22:54:43.973Z,95655.94
2018-07-28T22:57:13.223Z,95662.27
2018-07-28T22:59:42.337Z,95660.34
2018-07-28T23:02:12.042Z,95662.97
2018-07-28T23:04:41.283Z,95662.89
2018-07-28T23:07:11.237Z,95672.67
2018-07-28T23:09:47.324Z,95672.23
2018-07-28T23:12:17.120Z,95674.75
2018-07-28T23:14:48.163Z,95673.05
2018-07-28T23:17:18.965Z,95669.38
2018-07-28T23:19:49.733Z,95666.75
2018-07-28T23:22:19.493Z,95671.27
2018-07-28T23:24:50.379Z,95671.41
2018-07-28T23:27:20.453Z,95676.43
2018-07-28T23:29:49.769Z,95676.14
2018-07-28T23:32:19.337Z,95680.02
2018-07-28T23:34:48.585Z,95680.56
2018-07-28T23:37:19.711Z,95672.64
2018-07-28T23:39:48.957Z,95677.47
2018-07-28T23:42:18.873Z,95676.89
2018-07-28T23:44:48.133Z,95672.23
2018-07-28T23:47:18.297Z,95677.80
2018-07-28T23:49:47.597Z,95678.30
2018-07-28T23:52:18.972Z,95681.72
2018-07-28T23:54:48.749Z,95678.41
2018-07-28T23:57:19.252Z,95674.53
2018-07-28T23:59:49.568Z,95672.80
